createdAt,value
2023-01-29T00:00:33.142Z,12.27
2023-01-29T00:02:59.423Z,11.75
2023-01-29T00:05:28.364Z,11.98
2023-01-29T00:07:55.809Z,11.52
2023-01-29T00:10:22.304Z,11.80
2023-01-29T00:12:48.580Z,11.70
2023-01-29T00:15:14.865Z,12.15
2023-01-29T00:17:41.105Z,12.23
2023-01-29T00:20:07.540Z,11.98
2023-01-29T00:22:33.792Z,12.27
2023-01-29T00:25:00.330Z,10.50
2023-01-29T00:27:26.576Z,10.18
2023-01-29T00:30:08.968Z,10.48
2023-01-29T00:32:36.128Z,11.65
2023-01-29T00:35:02.654Z,11.63
2023-01-29T00:37:28.902Z,12.60
2023-01-29T00:39:55.221Z,11.68
2023-01-29T00:42:40.485Z,12.27
2023-01-29T00:45:07.207Z,11.68
2023-01-29T00:47:33.854Z,12.20
2023-01-29T00:50:04.447Z,13.10
2023-01-29T00:52:30.781Z,11.82
2023-01-29T00:54:58.684Z,11.70
2023-01-29T00:57:25.844Z,12.43
2023-01-29T00:59:52.226Z,13.38
2023-01-29T01:02:37.479Z,13.02
2023-01-29T01:05:06.091Z,12.48
2023-01-29T01:07:32.376Z,12.05
2023-01-29T01:10:17.824Z,13.40
2023-01-29T01:12:44.371Z,13.10
2023-01-29T01:15:11.048Z,12.23
2023-01-29T01:17:37.477Z,13.20
2023-01-29T01:20:04.093Z,12.32
2023-01-29T01:22:31.964Z,13.45
2023-01-29T01:24:58.363Z,12.90
2023-01-29T01:27:25.652Z,11.25
2023-01-29T01:29:51.977Z,13.50
2023-01-29T01:32:18.643Z,11.50
2023-01-29T01:34:45.343Z,12.77
2023-01-29T01:37:11.690Z,11.18
2023-01-29T01:39:37.968Z,11.90
2023-01-29T01:42:06.035Z,11.65
2023-01-29T01:44:51.085Z,11.65
2023-01-29T01:47:18.833Z,11.40
2023-01-29T01:49:45.270Z,11.25
2023-01-29T01:52:12.869Z,11.00
2023-01-29T01:54:39.282Z,11.93
2023-01-29T01:57:16.084Z,11.75
2023-01-29T01:59:45.889Z,11.25
2023-01-29T02:02:31.203Z,12.23
2023-01-29T02:05:16.321Z,12.63
2023-01-29T02:08:02.520Z,11.93
2023-01-29T02:10:30.695Z,12.50
2023-01-29T02:12:57.009Z,11.57
2023-01-29T02:15:23.289Z,11.82
2023-01-29T02:17:50.290Z,12.57
2023-01-29T02:20:27.094Z,13.20
2023-01-29T02:23:12.662Z,12.90
2023-01-29T02:25:41.976Z,12.50
2023-01-29T02:28:14.237Z,11.90
2023-01-29T02:31:00.829Z,11.93
2023-01-29T02:33:36.084Z,13.68
2023-01-29T02:36:18.679Z,13.80
2023-01-29T02:38:51.119Z,13.18
2023-01-29T02:41:26.574Z,12.20
2023-01-29T02:44:01.234Z,11.27
2023-01-29T02:46:32.951Z,12.55
2023-01-29T02:49:07.852Z,13.15
2023-01-29T02:51:41.862Z,12.52
2023-01-29T02:54:13.769Z,11.52
2023-01-29T02:56:45.020Z,13.25
2023-01-29T02:59:16.978Z,14.35
2023-01-29T03:01:46.564Z,14.43
2023-01-29T03:04:15.839Z,16.35
2023-01-29T03:06:44.944Z,16.05
2023-01-29T03:09:16.532Z,16.90
2023-01-29T03:11:45.195Z,17.88
2023-01-29T03:14:50.272Z,17.58
2023-01-29T03:17:17.868Z,14.65
2023-01-29T03:19:46.345Z,14.85
2023-01-29T03:22:13.666Z,13.98
2023-01-29T03:25:13.291Z,13.88
2023-01-29T03:28:01.312Z,12.90
2023-01-29T03:30:47.160Z,13.63
2023-01-29T03:33:15.102Z,12.50
2023-01-29T03:35:48.639Z,14.30
2023-01-29T03:38:15.848Z,13.43
2023-01-29T03:41:12.202Z,13.10
2023-01-29T03:43:38.455Z,13.38
2023-01-29T03:46:08.312Z,13.80
2023-01-29T03:48:37.403Z,14.68
2023-01-29T03:51:12.043Z,14.10
2023-01-29T03:53:41.389Z,14.30
2023-01-29T03:56:13.903Z,15.10
2023-01-29T03:58:45.876Z,14.15
2023-01-29T04:01:19.467Z,15.15
2023-01-29T04:04:04.537Z,15.65
2023-01-29T04:06:32.375Z,14.95
2023-01-29T04:09:01.475Z,16.75
2023-01-29T04:11:29.281Z,15.00
2023-01-29T04:13:56.336Z,15.55
2023-01-29T04:16:25.304Z,15.57
2023-01-29T04:18:51.868Z,14.95
2023-01-29T04:21:18.687Z,15.07
2023-01-29T04:23:44.961Z,15.60
2023-01-29T04:26:21.679Z,15.40
2023-01-29T04:28:58.059Z,15.80
2023-01-29T04:31:28.257Z,14.85
2023-01-29T04:34:12.581Z,15.35
2023-01-29T04:36:38.873Z,15.18
2023-01-29T04:39:17.722Z,15.23
2023-01-29T04:41:46.833Z,16.23
2023-01-29T04:44:18.774Z,14.27
2023-01-29T04:47:03.726Z,16.30
2023-01-29T04:49:45.441Z,15.50
2023-01-29T04:52:30.300Z,15.88
2023-01-29T04:55:14.905Z,16.52
2023-01-29T04:57:42.312Z,16.67
2023-01-29T05:00:12.511Z,14.57
2023-01-29T05:02:40.157Z,16.13
2023-01-29T05:05:07.325Z,15.70
2023-01-29T05:07:35.289Z,14.50
2023-01-29T05:10:02.461Z,16.23
2023-01-29T05:12:29.964Z,17.40
2023-01-29T05:14:58.103Z,15.98
2023-01-29T05:17:25.338Z,16.02
2023-01-29T05:19:51.675Z,15.93
2023-01-29T05:22:18.498Z,14.32
2023-01-29T05:24:46.341Z,14.52
2023-01-29T05:27:36.657Z,15.07
2023-01-29T05:30:03.115Z,16.45
2023-01-29T05:32:29.406Z,16.08
2023-01-29T05:34:55.952Z,16.80
2023-01-29T05:37:22.342Z,16.83
2023-01-29T05:39:48.895Z,16.05
2023-01-29T05:42:15.141Z,17.00
2023-01-29T05:44:41.432Z,15.23
2023-01-29T05:47:07.847Z,17.20
2023-01-29T05:49:34.094Z,16.08
2023-01-29T05:52:00.544Z,16.45
2023-01-29T05:54:26.919Z,16.50
2023-01-29T05:56:53.177Z,16.83
2023-01-29T05:59:19.500Z,16.92
2023-01-29T06:01:45.812Z,17.00
2023-01-29T06:04:12.111Z,17.27
2023-01-29T06:06:38.433Z,16.77
2023-01-29T06:09:04.727Z,15.88
2023-01-29T06:11:30.983Z,15.43
2023-01-29T06:13:57.715Z,16.17
2023-01-29T06:16:24.063Z,16.45
2023-01-29T06:18:50.381Z,17.08
2023-01-29T06:21:19.084Z,15.10
2023-01-29T06:23:46.332Z,16.30
2023-01-29T06:26:13.681Z,15.75
2023-01-29T06:28:40.120Z,16.23
2023-01-29T06:31:37.390Z,15.32
2023-01-29T06:33:53.291Z,15.00
2023-01-29T06:36:19.561Z,15.90
2023-01-29T06:38:47.248Z,15.45
2023-01-29T06:41:16.056Z,14.88
2023-01-29T06:43:44.119Z,15.68
2023-01-29T06:46:10.549Z,16.35
2023-01-29T06:48:36.877Z,14.85
2023-01-29T06:51:06.841Z,15.07
2023-01-29T06:53:33.864Z,14.73
2023-01-29T06:56:00.230Z,14.68
2023-01-29T06:58:26.660Z,15.30
2023-01-29T07:00:53.097Z,14.90
2023-01-29T07:03:19.435Z,15.15
2023-01-29T07:05:52.868Z,15.10
2023-01-29T07:08:22.487Z,14.05
2023-01-29T07:10:49.200Z,15.43
2023-01-29T07:13:16.301Z,15.02
2023-01-29T07:15:42.970Z,15.95
2023-01-29T07:18:12.607Z,15.10
2023-01-29T07:20:40.260Z,15.32
2023-01-29T07:23:06.808Z,15.25
2023-01-29T07:25:33.818Z,15.20
2023-01-29T07:28:01.085Z,15.25
2023-01-29T07:30:27.546Z,16.60
2023-01-29T07:32:53.903Z,14.98
2023-01-29T07:35:20.164Z,15.65
2023-01-29T07:37:49.053Z,15.05
2023-01-29T07:40:15.726Z,14.68
2023-01-29T07:42:43.973Z,15.57
2023-01-29T07:45:10.811Z,16.05
2023-01-29T07:47:37.061Z,14.32
2023-01-29T07:50:04.027Z,15.55
2023-01-29T07:52:31.203Z,16.15
2023-01-29T07:54:57.536Z,15.30
2023-01-29T07:57:23.932Z,14.32
2023-01-29T07:59:50.289Z,15.60
2023-01-29T08:02:16.774Z,14.25
2023-01-29T08:04:43.071Z,14.18
2023-01-29T08:07:09.525Z,14.45
2023-01-29T08:09:36.344Z,14.18
2023-01-29T08:12:02.620Z,13.68
2023-01-29T08:14:28.868Z,14.30
2023-01-29T08:16:55.101Z,14.75
2023-01-29T08:19:21.335Z,14.98
2023-01-29T08:21:47.910Z,13.55
2023-01-29T08:24:14.274Z,13.70
2023-01-29T08:26:40.531Z,14.30
2023-01-29T08:29:06.845Z,15.00
2023-01-29T08:31:33.635Z,15.38
2023-01-29T08:33:59.902Z,12.52
2023-01-29T08:36:26.281Z,13.35
2023-01-29T08:38:52.531Z,13.55
2023-01-29T08:41:19.013Z,14.48
2023-01-29T08:43:46.486Z,14.45
2023-01-29T08:46:12.915Z,13.43
2023-01-29T08:48:39.212Z,13.90
2023-01-29T08:51:05.728Z,13.50
2023-01-29T08:53:32.181Z,12.55
2023-01-29T08:55:58.490Z,13.35
2023-01-29T08:58:24.799Z,14.38
2023-01-29T09:00:51.157Z,13.88
2023-01-29T09:03:17.829Z,15.57
2023-01-29T09:05:44.184Z,13.68
2023-01-29T09:08:10.613Z,14.00
2023-01-29T09:10:36.880Z,14.15
2023-01-29T09:13:03.482Z,14.57
2023-01-29T09:15:30.035Z,14.40
2023-01-29T09:17:56.466Z,14.13
2023-01-29T09:20:22.784Z,13.68
2023-01-29T09:22:50.530Z,12.93
2023-01-29T09:25:17.217Z,13.73
2023-01-29T09:27:43.831Z,14.07
2023-01-29T09:30:10.543Z,13.55
2023-01-29T09:32:52.758Z,14.25
2023-01-29T09:35:19.767Z,13.85
2023-01-29T09:37:50.118Z,12.98
2023-01-29T09:40:28.467Z,13.98
2023-01-29T09:43:01.363Z,12.77
2023-01-29T09:45:28.400Z,13.45
2023-01-29T09:47:59.209Z,14.55
2023-01-29T09:50:37.251Z,14.27
2023-01-29T09:53:26.278Z,11.85
2023-01-29T09:55:52.512Z,14.73
2023-01-29T09:58:35.852Z,13.80
2023-01-29T10:01:05.182Z,13.32
2023-01-29T10:03:40.675Z,12.90
2023-01-29T10:06:13.230Z,14.32
2023-01-29T10:08:52.906Z,14.50
2023-01-29T10:11:25.207Z,14.85
2023-01-29T10:13:51.530Z,13.13
2023-01-29T10:16:39.659Z,14.52
2023-01-29T10:19:08.939Z,14.77
2023-01-29T10:21:53.967Z,15.00
2023-01-29T10:24:40.523Z,13.57
2023-01-29T10:27:13.494Z,14.57
2023-01-29T10:29:41.339Z,14.27
2023-01-29T10:32:13.906Z,14.50
2023-01-29T10:34:46.472Z,14.20
2023-01-29T10:37:15.611Z,14.13
2023-01-29T10:39:41.970Z,13.77
2023-01-29T10:42:11.327Z,14.57
2023-01-29T10:44:43.653Z,14.50
2023-01-29T10:47:21.603Z,14.57
2023-01-29T10:49:48.041Z,14.93
2023-01-29T10:52:32.995Z,16.08
2023-01-29T10:55:03.432Z,16.05
2023-01-29T10:57:46.359Z,15.98
2023-01-29T11:00:23.255Z,15.27
2023-01-29T11:02:50.464Z,15.85
2023-01-29T11:05:29.769Z,15.05
2023-01-29T11:08:22.253Z,16.98
2023-01-29T11:10:54.623Z,16.27
2023-01-29T11:13:22.447Z,16.25
2023-01-29T11:15:51.704Z,16.67
2023-01-29T11:18:18.065Z,19.38
2023-01-29T11:20:45.520Z,20.52
2023-01-29T11:23:41.125Z,18.55
2023-01-29T11:26:10.833Z,16.97
2023-01-29T11:28:45.055Z,18.25
2023-01-29T11:31:19.220Z,17.38
2023-01-29T11:33:46.246Z,17.05
2023-01-29T11:36:32.913Z,16.73
2023-01-29T11:39:08.309Z,16.40
2023-01-29T11:41:42.859Z,17.45
2023-01-29T11:44:18.080Z,17.48
2023-01-29T11:46:44.429Z,19.98
2023-01-29T11:49:21.116Z,19.33
2023-01-29T11:51:51.477Z,18.75
2023-01-29T11:54:19.650Z,18.63
2023-01-29T11:56:46.662Z,17.65
2023-01-29T11:59:31.620Z,19.58
2023-01-29T12:02:04.728Z,19.95
2023-01-29T12:04:31.110Z,19.30
2023-01-29T12:06:58.008Z,20.70
2023-01-29T12:09:27.289Z,18.45
2023-01-29T12:11:53.667Z,19.73
2023-01-29T12:14:34.172Z,19.20
2023-01-29T12:17:06.127Z,18.35
2023-01-29T12:19:42.592Z,20.50
2023-01-29T12:22:18.104Z,19.40
2023-01-29T12:24:50.740Z,19.05
2023-01-29T12:27:38.931Z,19.60
2023-01-29T12:32:46.429Z,21.33
2023-01-29T12:35:21.580Z,21.60
2023-01-29T12:38:06.777Z,18.83
2023-01-29T12:40:38.199Z,19.40
2023-01-29T12:43:07.005Z,19.98
2023-01-29T12:45:35.459Z,20.27
2023-01-29T12:48:05.081Z,19.92
2023-01-29T12:50:35.407Z,18.45
2023-01-29T12:53:20.341Z,18.80
2023-01-29T12:55:48.647Z,19.10
2023-01-29T12:58:16.300Z,19.25
2023-01-29T13:00:46.877Z,19.30
2023-01-29T13:03:20.846Z,19.15
2023-01-29T13:05:50.270Z,19.58
2023-01-29T13:08:21.831Z,20.55
2023-01-29T13:10:50.513Z,19.88
2023-01-29T13:13:32.129Z,19.85
2023-01-29T13:16:00.857Z,18.75
2023-01-29T13:18:42.411Z,20.40
2023-01-29T13:21:34.949Z,19.48
2023-01-29T13:24:05.715Z,20.33
2023-01-29T13:26:32.669Z,18.52
2023-01-29T13:28:59.083Z,20.70
2023-01-29T13:31:28.431Z,19.50
2023-01-29T13:34:00.722Z,19.73
2023-01-29T13:36:28.989Z,20.77
2023-01-29T13:39:08.918Z,20.45
2023-01-29T13:41:39.847Z,18.85
2023-01-29T13:44:08.075Z,19.05
2023-01-29T13:46:34.533Z,19.20
2023-01-29T13:49:04.818Z,20.90
2023-01-29T13:51:35.017Z,20.25
2023-01-29T13:54:07.833Z,19.33
2023-01-29T13:56:34.054Z,19.20
2023-01-29T13:59:01.347Z,18.23
2023-01-29T14:01:46.603Z,20.17
2023-01-29T14:04:19.049Z,18.95
2023-01-29T14:06:47.078Z,18.27
2023-01-29T14:09:32.697Z,16.92
2023-01-29T14:11:59.061Z,17.65
2023-01-29T14:14:50.635Z,17.90
2023-01-29T14:17:18.112Z,18.02
2023-01-29T14:19:51.516Z,19.52
2023-01-29T14:22:22.281Z,16.80
2023-01-29T14:24:49.490Z,18.70
2023-01-29T14:27:25.303Z,17.70
2023-01-29T14:29:57.465Z,19.23
2023-01-29T14:32:27.629Z,18.48
2023-01-29T14:35:04.961Z,17.30
2023-01-29T14:37:33.842Z,17.77
2023-01-29T14:40:20.629Z,17.25
2023-01-29T14:42:46.874Z,16.15
2023-01-29T14:45:30.044Z,17.63
2023-01-29T14:47:56.359Z,16.88
2023-01-29T14:50:28.654Z,17.50
2023-01-29T14:52:59.712Z,17.38
2023-01-29T14:55:25.967Z,17.80
2023-01-29T14:57:52.774Z,16.10
2023-01-29T15:00:22.609Z,16.38
2023-01-29T15:02:56.418Z,15.80
2023-01-29T15:05:35.841Z,16.85
2023-01-29T15:08:13.900Z,17.45
2023-01-29T15:10:43.875Z,14.75
2023-01-29T15:13:22.215Z,15.82
2023-01-29T15:16:21.035Z,17.63
2023-01-29T15:18:50.451Z,16.75
2023-01-29T15:21:17.642Z,17.60
2023-01-29T15:23:44.697Z,16.75
2023-01-29T15:26:12.364Z,16.02
2023-01-29T15:28:39.185Z,17.00
2023-01-29T15:31:12.046Z,17.30
2023-01-29T15:33:41.065Z,18.25
2023-01-29T15:36:08.415Z,16.40
2023-01-29T15:38:35.268Z,16.70
2023-01-29T15:41:16.586Z,18.17
2023-01-29T15:43:44.282Z,17.42
2023-01-29T15:46:12.432Z,16.90
2023-01-29T15:48:40.657Z,17.10
2023-01-29T15:51:07.890Z,16.67
2023-01-29T15:53:49.643Z,18.58
2023-01-29T15:56:18.107Z,21.98
2023-01-29T15:58:46.911Z,13.63
2023-01-29T16:01:13.342Z,16.45
2023-01-29T16:03:40.022Z,16.75
2023-01-29T16:06:09.148Z,14.38
2023-01-29T16:08:38.516Z,16.02
2023-01-29T16:11:06.612Z,14.88
2023-01-29T16:13:36.339Z,16.17
2023-01-29T16:16:04.619Z,16.10
2023-01-29T16:18:35.176Z,17.45
2023-01-29T16:21:06.471Z,20.08
2023-01-29T16:23:40.341Z,16.52
2023-01-29T16:26:08.082Z,15.93
2023-01-29T16:28:45.803Z,16.20
2023-01-29T16:31:13.954Z,17.92
2023-01-29T16:33:41.414Z,15.15
2023-01-29T16:36:28.049Z,15.20
2023-01-29T16:38:56.768Z,15.82
2023-01-29T16:41:25.735Z,14.55
2023-01-29T16:44:01.153Z,17.20
2023-01-29T16:48:54.599Z,15.73
2023-01-29T16:51:26.037Z,16.63
2023-01-29T16:53:52.932Z,19.00
2023-01-29T16:56:22.289Z,18.77
2023-01-29T16:58:52.204Z,18.52
2023-01-29T17:01:18.969Z,18.25
2023-01-29T17:03:49.868Z,17.83
2023-01-29T17:06:21.429Z,18.08
2023-01-29T17:08:47.785Z,17.85
2023-01-29T17:11:23.133Z,17.83
2023-01-29T17:13:49.441Z,17.38
2023-01-29T17:16:22.011Z,17.63
2023-01-29T17:18:48.315Z,17.98
2023-01-29T17:21:14.851Z,17.75
2023-01-29T17:23:42.235Z,19.63
2023-01-29T17:26:09.922Z,75.22
2023-01-29T17:28:36.399Z,36.22
2023-01-29T17:31:06.613Z,38.80
2023-01-29T17:33:34.143Z,51.70
2023-01-29T17:36:00.510Z,45.83
2023-01-29T17:38:27.063Z,51.95
2023-01-29T17:40:58.014Z,15.90
2023-01-29T17:43:24.432Z,20.13
2023-01-29T17:45:50.780Z,19.40
2023-01-29T17:48:27.899Z,18.80
2023-01-29T17:50:55.556Z,19.73
2023-01-29T17:53:23.626Z,20.42
2023-01-29T17:55:51.073Z,23.70
2023-01-29T17:58:19.104Z,16.85
2023-01-29T18:00:45.841Z,19.33
2023-01-29T18:03:12.528Z,17.30
2023-01-29T18:05:42.426Z,18.45
2023-01-29T18:08:29.582Z,18.67
2023-01-29T18:10:56.238Z,17.08
2023-01-29T18:13:22.695Z,18.80
2023-01-29T18:15:49.513Z,18.27
2023-01-29T18:18:18.332Z,19.50
2023-01-29T18:20:45.094Z,19.58
2023-01-29T18:23:11.876Z,19.00
2023-01-29T18:25:38.563Z,20.20
2023-01-29T18:28:05.338Z,19.23
2023-01-29T18:30:31.945Z,27.35
2023-01-29T18:32:58.451Z,17.98
2023-01-29T18:35:25.171Z,19.65
2023-01-29T18:37:51.541Z,20.83
2023-01-29T18:40:18.425Z,19.52
2023-01-29T18:42:45.563Z,19.63
2023-01-29T18:45:12.637Z,20.08
2023-01-29T18:47:39.436Z,20.42
2023-01-29T18:50:06.365Z,17.23
2023-01-29T18:52:33.609Z,17.80
2023-01-29T18:55:01.000Z,19.40
2023-01-29T18:58:26.624Z,19.05
2023-01-29T19:00:14.843Z,19.95
2023-01-29T19:02:42.844Z,18.60
2023-01-29T19:05:09.208Z,18.88
2023-01-29T19:07:35.694Z,19.90
2023-01-29T19:10:04.644Z,18.65
2023-01-29T19:12:30.924Z,19.52
2023-01-29T19:14:57.316Z,18.42
2023-01-29T19:17:23.679Z,18.70
2023-01-29T19:19:50.994Z,19.48
2023-01-29T19:22:17.482Z,19.70
2023-01-29T19:24:43.816Z,19.15
2023-01-29T19:27:10.269Z,18.10
2023-01-29T19:29:36.565Z,17.15
2023-01-29T19:32:03.080Z,17.60
2023-01-29T19:34:29.368Z,19.35
2023-01-29T19:36:55.666Z,17.33
2023-01-29T19:39:22.252Z,17.27
2023-01-29T19:41:48.495Z,17.48
2023-01-29T19:44:14.781Z,18.75
2023-01-29T19:46:41.135Z,16.58
2023-01-29T19:49:07.469Z,18.38
2023-01-29T19:51:33.831Z,19.10
2023-01-29T19:54:00.189Z,18.23
2023-01-29T19:56:26.516Z,18.40
2023-01-29T19:58:57.252Z,20.42
2023-01-29T20:01:29.546Z,18.73
2023-01-29T20:03:55.875Z,18.73
2023-01-29T20:06:23.709Z,18.63
2023-01-29T20:08:50.078Z,18.45
2023-01-29T20:11:17.336Z,19.48
2023-01-29T20:13:43.877Z,16.38
2023-01-29T20:16:10.204Z,20.00
2023-01-29T20:18:36.508Z,18.35
2023-01-29T20:21:22.081Z,19.33
2023-01-29T20:28:42.055Z,17.77
2023-01-29T20:31:09.418Z,19.27
2023-01-29T20:33:39.041Z,19.23
2023-01-29T20:36:07.462Z,22.30
2023-01-29T20:38:35.247Z,19.35
2023-01-29T20:41:15.020Z,20.27
2023-01-29T20:43:41.966Z,20.10
2023-01-29T20:46:09.095Z,20.10
2023-01-29T20:48:35.782Z,16.98
2023-01-29T20:51:06.525Z,19.30
2023-01-29T20:53:33.020Z,20.23
2023-01-29T20:55:59.552Z,20.15
2023-01-29T20:58:26.412Z,21.05
2023-01-29T21:00:52.796Z,21.00
2023-01-29T21:03:19.186Z,20.08
2023-01-29T21:05:46.000Z,20.90
2023-01-29T21:08:12.473Z,20.50
2023-01-29T21:10:39.455Z,18.75
2023-01-29T21:13:05.944Z,20.38
2023-01-29T21:15:32.379Z,20.83
2023-01-29T21:18:02.521Z,20.30
2023-01-29T21:20:28.828Z,21.38
2023-01-29T21:22:55.226Z,22.10
2023-01-29T21:25:22.949Z,21.45
2023-01-29T21:27:49.466Z,21.45
2023-01-29T21:30:16.442Z,22.98
2023-01-29T21:32:42.985Z,23.02
2023-01-29T21:35:09.789Z,21.27
2023-01-29T21:37:37.836Z,22.58
2023-01-29T21:40:05.093Z,19.40
2023-01-29T21:42:50.059Z,21.35
2023-01-29T21:45:16.371Z,21.60
2023-01-29T21:47:42.611Z,23.58
2023-01-29T21:50:09.161Z,22.38
2023-01-29T21:52:35.459Z,21.40
2023-01-29T21:55:02.019Z,20.77
2023-01-29T21:57:28.397Z,21.23
2023-01-29T21:59:54.685Z,19.90
2023-01-29T22:02:22.152Z,22.05
2023-01-29T22:04:48.562Z,21.75
2023-01-29T22:07:14.809Z,20.60
2023-01-29T22:09:41.201Z,21.02
2023-01-29T22:12:08.164Z,21.58
2023-01-29T22:14:34.606Z,21.98
2023-01-29T22:17:01.363Z,20.83
2023-01-29T22:19:29.343Z,20.05
2023-01-29T22:21:55.632Z,20.70
2023-01-29T22:24:21.983Z,21.58
2023-01-29T22:26:49.439Z,19.90
2023-01-29T22:29:19.495Z,20.52
2023-01-29T22:31:45.782Z,21.45
2023-01-29T22:34:12.828Z,20.42
2023-01-29T22:36:39.517Z,21.20
2023-01-29T22:39:07.294Z,22.63
2023-01-29T22:41:33.761Z,17.92
2023-01-29T22:44:00.326Z,20.63
2023-01-29T22:46:26.563Z,20.48
2023-01-29T22:48:53.614Z,20.50
2023-01-29T22:51:19.910Z,18.38
2023-01-29T22:53:50.057Z,20.70
2023-01-29T22:56:17.045Z,21.15
2023-01-29T22:58:43.665Z,18.65
2023-01-29T23:01:10.550Z,20.40
2023-01-29T23:03:36.885Z,21.73
2023-01-29T23:06:03.450Z,19.73
2023-01-29T23:08:31.877Z,21.08
2023-01-29T23:11:13.646Z,22.17
2023-01-29T23:13:50.592Z,20.77
2023-01-29T23:16:17.976Z,20.52
2023-01-29T23:18:44.675Z,20.40
2023-01-29T23:21:11.373Z,16.73
2023-01-29T23:23:37.749Z,20.67
2023-01-29T23:26:24.237Z,20.05
2023-01-29T23:28:50.501Z,17.42
2023-01-29T23:31:16.848Z,19.70
2023-01-29T23:33:43.475Z,19.02
2023-01-29T23:36:09.859Z,17.80
2023-01-29T23:38:36.191Z,20.42
2023-01-29T23:41:03.043Z,16.48
2023-01-29T23:43:29.755Z,18.88
2023-01-29T23:45:56.049Z,19.58
2023-01-29T23:48:22.653Z,19.67
2023-01-29T23:50:49.361Z,18.50
2023-01-29T23:53:16.195Z,19.23
2023-01-29T23:55:42.571Z,18.83
2023-01-29T23:58:09.025Z,19.55
